Time;durP1;ratioP1;P1;durP2;ratioP2;P2;SDS_P1;SDS_P2;PMS_P1;PMS_P2;Temp;Humidity;BMP_temperature;BMP_pressure;BME280_temperature;BME280_humidity;BME280_pressure;Samples;Min_cycle;Max_cycle;Signal;HPM_P1;HPM_P2
2022/01/08 00:00:12;;;;;;;;;;;;;;;;;;5053157;28;20008;-75
2022/01/08 00:02:37;;;;;;;;;;;;;;;;;;5057593;28;19980;-73
2022/01/08 00:05:03;;;;;;;;;;;;;;;;;;5054541;28;19960;-73
2022/01/08 00:07:29;;;;;;;;;;;;;;;;;;5054262;28;20384;-73
2022/01/08 00:09:55;;;;;;;;;;;;;;;;;;5072819;28;19927;-73
2022/01/08 00:12:22;;;;;;;;;;;;;;;;;;5072868;28;19930;-73
2022/01/08 00:14:48;;;;;;;;;;;;;;;;;;5073174;28;20391;-75
2022/01/08 00:17:14;;;;;;;;;;;;;;;;;;5072858;28;20261;-75
2022/01/08 00:19:40;;;;;;;;;;;;;;;;;;5055748;28;20007;-73
2022/01/08 00:22:06;;;;;;;;;;;;;;;;;;5052565;28;19920;-74
2022/01/08 00:24:32;;;;;;;;;;;;;;;;;;5052957;28;19943;-73
2022/01/08 00:26:58;;;;;;;;;;;;;;;;;;5052612;28;20020;-72
2022/01/08 00:29:24;;;;;;;;;;;;;;;;;;5062774;28;19920;-72
2022/01/08 00:31:50;;;;;;;;;;;;;;;;;;5071742;28;19921;-75
2022/01/08 00:34:16;;;;;;;;;;;;;;;;;;5072619;28;19921;-74
2022/01/08 00:36:42;;;;;;;;;;;;;;;;;;5072546;28;19928;-75
2022/01/08 00:39:08;;;;;;;;;;;;;;;;;;5052773;28;20011;-72
2022/01/08 00:41:34;;;;;;;;;;;;;;;;;;5052915;28;19920;-73
2022/01/08 00:44:00;;;;;;;;;;;;;;;;;;5052790;28;19940;-74
2022/01/08 00:46:26;;;;;;;;;;;;;;;;;;5052372;28;19974;-74
2022/01/08 00:48:52;;;;;;;;;;;;;;;;;;5053739;28;19921;-74
2022/01/08 00:51:18;;;;;;;;;;;;;;;;;;5052297;28;19921;-74
2022/01/08 00:53:43;;;;;;;;;;;;;;;;;;5052844;28;20434;-76
2022/01/08 00:56:09;;;;;;;;;;;;;;;;;;5052437;28;20273;-72
2022/01/08 00:58:35;;;;;;;;;;;;;;;;;;5066529;28;20282;-74
2022/01/08 01:01:01;;;;;;;;;;;;;;;;;;5081836;28;19924;-74
2022/01/08 01:03:27;;;;;;;;;;;;;;;;;;5072079;28;19934;-74
2022/01/08 01:05:53;;;;;;;;;;;;;;;;;;5072324;28;19928;-72
2022/01/08 01:08:19;;;;;;;;;;;;;;;;;;5072081;28;19920;-75
2022/01/08 01:10:45;;;;;;;;;;;;;;;;;;5072504;28;20364;-77
2022/01/08 01:13:11;;;;;;;;;;;;;;;;;;5071421;28;20387;-74
2022/01/08 01:15:37;;;;;;;;;;;;;;;;;;5072537;28;20447;-72
2022/01/08 01:18:03;;;;;;;;;;;;;;;;;;5072498;28;20287;-73
2022/01/08 01:20:29;;;;;;;;;;;;;;;;;;5072931;28;19920;-74
2022/01/08 01:23:14;;;;;;;;;;;;;;;;;;5072506;28;19981;-70
2022/01/08 01:25:47;;;;;;;;;;;;;;;;;;5072531;28;19920;-73
2022/01/08 01:29:01;;;;;;;;;;;;;;;;;;5105016;28;20364;-73
2022/01/08 01:41:44;;;;;;;;;;;;;;;;;;5094226;28;19919;-73
2022/01/08 01:49:21;;;;;;;;;;;;;;;;;;5096049;28;19920;-73
2022/01/08 01:51:47;;;;;;;;;;;;;;;;;;5084642;28;20003;-74
2022/01/08 01:54:13;;;;;;;;;;;;;;;;;;5074862;28;19934;-73
2022/01/08 01:56:39;;;;;;;;;;;;;;;;;;5076035;28;19978;-73
2022/01/08 01:59:05;;;;;;;;;;;;;;;;;;5076179;28;19921;-73
2022/01/08 02:01:31;;;;;;;;;;;;;;;;;;5080779;28;20376;-74
2022/01/08 02:03:57;;;;;;;;;;;;;;;;;;5096198;28;20006;-73
2022/01/08 02:06:23;;;;;;;;;;;;;;;;;;5095473;28;19967;-72
2022/01/08 02:08:49;;;;;;;;;;;;;;;;;;5096070;28;19920;-73
2022/01/08 02:11:17;;;;;;;;;;;;;;;;;;5094256;28;19920;-73
2022/01/08 02:13:43;;;;;;;;;;;;;;;;;;5094498;28;20359;-73
2022/01/08 02:16:17;;;;;;;;;;;;;;;;;;5095883;28;19962;-74
2022/01/08 02:18:43;;;;;;;;;;;;;;;;;;5093519;28;19924;-78
2022/01/08 02:21:08;;;;;;;;;;;;;;;;;;5077601;28;20018;-75
2022/01/08 02:23:34;;;;;;;;;;;;;;;;;;5095056;28;19920;-73
2022/01/08 02:26:00;;;;;;;;;;;;;;;;;;5095703;28;19927;-73
2022/01/08 02:28:26;;;;;;;;;;;;;;;;;;5094999;28;19920;-72
2022/01/08 02:30:52;;;;;;;;;;;;;;;;;;5092606;28;19929;-74
2022/01/08 02:33:19;;;;;;;;;;;;;;;;;;5095262;28;19927;-73
2022/01/08 02:35:44;;;;;;;;;;;;;;;;;;5094691;28;19943;-74
2022/01/08 02:38:10;;;;;;;;;;;;;;;;;;5095283;28;20287;-73
2022/01/08 02:40:37;;;;;;;;;;;;;;;;;;5093177;28;19919;-73
2022/01/08 02:43:04;;;;;;;;;;;;;;;;;;5095464;28;19924;-71
2022/01/08 02:45:30;;;;;;;;;;;;;;;;;;5094913;28;19927;-72
2022/01/08 02:47:56;;;;;;;;;;;;;;;;;;5095083;28;19919;-72
2022/01/08 02:50:22;;;;;;;;;;;;;;;;;;5089240;28;19964;-73
2022/01/08 02:52:48;;;;;;;;;;;;;;;;;;5073695;28;19928;-73
2022/01/08 02:55:14;;;;;;;;;;;;;;;;;;5074937;28;19924;-72
2022/01/08 02:57:39;;;;;;;;;;;;;;;;;;5074455;28;19927;-73
2022/01/08 03:00:06;;;;;;;;;;;;;;;;;;5074895;28;19920;-72
2022/01/08 03:02:31;;;;;;;;;;;;;;;;;;5075250;28;20360;-72
2022/01/08 03:04:57;;;;;;;;;;;;;;;;;;5074560;28;20003;-72
2022/01/08 03:07:23;;;;;;;;;;;;;;;;;;5074785;28;20364;-73
2022/01/08 03:09:56;;;;;;;;;;;;;;;;;;5074303;28;20352;-73
2022/01/08 03:12:22;;;;;;;;;;;;;;;;;;5087140;28;19931;-73
2022/01/08 03:14:48;;;;;;;;;;;;;;;;;;5094316;28;19931;-73
2022/01/08 03:17:14;;;;;;;;;;;;;;;;;;5094579;28;20042;-73
2022/01/08 03:19:40;;;;;;;;;;;;;;;;;;5094029;28;19920;-73
2022/01/08 03:22:06;;;;;;;;;;;;;;;;;;5092611;28;19965;-73
2022/01/08 03:24:32;;;;;;;;;;;;;;;;;;5094202;28;19928;-72
2022/01/08 03:26:58;;;;;;;;;;;;;;;;;;5094585;28;19943;-73
2022/01/08 03:29:24;;;;;;;;;;;;;;;;;;5094539;28;20379;-73
2022/01/08 03:31:50;;;;;;;;;;;;;;;;;;5093796;28;20486;-73
2022/01/08 03:34:16;;;;;;;;;;;;;;;;;;5073878;28;20288;-74
2022/01/08 03:36:42;;;;;;;;;;;;;;;;;;5072502;28;20361;-73
2022/01/08 03:39:08;;;;;;;;;;;;;;;;;;5074135;28;20267;-74
2022/01/08 03:41:35;;;;;;;;;;;;;;;;;;5073653;28;19951;-73
2022/01/08 03:44:01;;;;;;;;;;;;;;;;;;5088144;28;19924;-73
2022/01/08 03:46:29;;;;;;;;;;;;;;;;;;5094043;28;19920;-73
2022/01/08 03:49:24;;;;;;;;;;;;;;;;;;5093557;28;19974;-73
2022/01/08 03:51:44;;;;;;;;;;;;;;;;;;5093160;28;19920;-73
2022/01/08 03:54:10;;;;;;;;;;;;;;;;;;5091648;28;20003;-73
2022/01/08 03:56:36;;;;;;;;;;;;;;;;;;5093190;28;19920;-73
2022/01/08 03:59:01;;;;;;;;;;;;;;;;;;5093531;28;20284;-73
2022/01/08 04:01:27;;;;;;;;;;;;;;;;;;5089552;28;19920;-73
2022/01/08 04:03:53;;;;;;;;;;;;;;;;;;5073098;28;20364;-74
2022/01/08 04:06:19;;;;;;;;;;;;;;;;;;5071858;28;20284;-72
2022/01/08 04:08:45;;;;;;;;;;;;;;;;;;5072573;28;19966;-72
2022/01/08 04:11:11;;;;;;;;;;;;;;;;;;5073916;28;19947;-73
2022/01/08 04:13:40;;;;;;;;;;;;;;;;;;5072669;28;19921;-73
2022/01/08 04:16:13;;;;;;;;;;;;;;;;;;5072805;28;20011;-82
2022/01/08 04:18:39;;;;;;;;;;;;;;;;;;5072517;28;19927;-72
2022/01/08 04:21:38;;;;;;;;;;;;;;;;;;5073318;28;20014;-73
2022/01/08 04:23:54;;;;;;;;;;;;;;;;;;5072066;28;19999;-73
2022/01/08 04:26:22;;;;;;;;;;;;;;;;;;5072800;28;20363;-70
2022/01/08 04:28:47;;;;;;;;;;;;;;;;;;5072429;28;19920;-73
2022/01/08 04:31:13;;;;;;;;;;;;;;;;;;5072622;28;19985;-73
2022/01/08 04:33:39;;;;;;;;;;;;;;;;;;5073018;28;19931;-74
2022/01/08 04:36:05;;;;;;;;;;;;;;;;;;5072610;28;19921;-74
2022/01/08 04:38:32;;;;;;;;;;;;;;;;;;5072523;28;20327;-73
2022/01/08 04:40:58;;;;;;;;;;;;;;;;;;5071980;28;19920;-73
2022/01/08 04:43:24;;;;;;;;;;;;;;;;;;5073781;28;19920;-74
2022/01/08 04:45:51;;;;;;;;;;;;;;;;;;5072245;28;19973;-73
2022/01/08 04:48:17;;;;;;;;;;;;;;;;;;5072672;28;19927;-74
2022/01/08 04:50:43;;;;;;;;;;;;;;;;;;5072110;28;19972;-74
2022/01/08 04:53:10;;;;;;;;;;;;;;;;;;5072312;28;19932;-73
2022/01/08 04:55:36;;;;;;;;;;;;;;;;;;5073165;28;20268;-73
2022/01/08 04:58:02;;;;;;;;;;;;;;;;;;5072247;28;19924;-72
2022/01/08 05:00:28;;;;;;;;;;;;;;;;;;5072732;28;20336;-73
2022/01/08 05:02:54;;;;;;;;;;;;;;;;;;5072138;28;20430;-74
2022/01/08 05:05:20;;;;;;;;;;;;;;;;;;5072360;28;20376;-73
2022/01/08 05:07:46;;;;;;;;;;;;;;;;;;5072016;28;20378;-74
2022/01/08 05:10:12;;;;;;;;;;;;;;;;;;5072274;28;20300;-74
2022/01/08 05:12:38;;;;;;;;;;;;;;;;;;5086548;28;19973;-73
2022/01/08 05:15:04;;;;;;;;;;;;;;;;;;5092136;28;20126;-72
2022/01/08 05:17:35;;;;;;;;;;;;;;;;;;5092547;28;19999;-74
2022/01/08 05:20:03;;;;;;;;;;;;;;;;;;5092121;28;20014;-74
2022/01/08 05:22:31;;;;;;;;;;;;;;;;;;5081735;28;19966;-71
2022/01/08 05:24:57;;;;;;;;;;;;;;;;;;5071998;28;19924;-72
2022/01/08 05:27:23;;;;;;;;;;;;;;;;;;5072411;28;20356;-72
2022/01/08 05:29:49;;;;;;;;;;;;;;;;;;5072114;28;20314;-72
2022/01/08 05:32:18;;;;;;;;;;;;;;;;;;5072072;28;19920;-73
2022/01/08 05:34:44;;;;;;;;;;;;;;;;;;5071901;28;19927;-72
2022/01/08 05:37:10;;;;;;;;;;;;;;;;;;5071640;28;19920;-72
2022/01/08 05:39:36;;;;;;;;;;;;;;;;;;5072266;28;19924;-73
2022/01/08 05:42:02;;;;;;;;;;;;;;;;;;5071692;28;19927;-73
2022/01/08 05:44:28;;;;;;;;;;;;;;;;;;5073076;28;20007;-74
2022/01/08 05:46:54;;;;;;;;;;;;;;;;;;5071662;28;19924;-72
2022/01/08 05:49:20;;;;;;;;;;;;;;;;;;5070812;28;20280;-73
2022/01/08 05:51:46;;;;;;;;;;;;;;;;;;5071852;28;19920;-73
2022/01/08 05:54:12;;;;;;;;;;;;;;;;;;5072451;28;19924;-73
2022/01/08 05:56:38;;;;;;;;;;;;;;;;;;5071973;28;20022;-73
2022/01/08 05:59:04;;;;;;;;;;;;;;;;;;5071618;28;19927;-73
2022/01/08 06:01:29;;;;;;;;;;;;;;;;;;5080081;28;19924;-73
2022/01/08 06:03:55;;;;;;;;;;;;;;;;;;5097490;28;19920;-73
2022/01/08 06:06:21;;;;;;;;;;;;;;;;;;5098061;28;19920;-74
2022/01/08 06:08:47;;;;;;;;;;;;;;;;;;5092244;28;20338;-73
2022/01/08 06:11:13;;;;;;;;;;;;;;;;;;5089948;28;20014;-73
2022/01/08 06:13:39;;;;;;;;;;;;;;;;;;5091991;28;19931;-73
2022/01/08 06:16:05;;;;;;;;;;;;;;;;;;5090371;28;19927;-73
2022/01/08 06:18:31;;;;;;;;;;;;;;;;;;5090774;28;20011;-73
2022/01/08 06:20:59;;;;;;;;;;;;;;;;;;5091421;28;19920;-72
2022/01/08 06:23:25;;;;;;;;;;;;;;;;;;5075271;28;20007;-73
2022/01/08 06:25:51;;;;;;;;;;;;;;;;;;5073197;28;19963;-73
2022/01/08 06:28:17;;;;;;;;;;;;;;;;;;5074622;28;19920;-72
2022/01/08 06:30:43;;;;;;;;;;;;;;;;;;5075099;28;19930;-72
2022/01/08 06:33:09;;;;;;;;;;;;;;;;;;5077259;28;20283;-72
2022/01/08 06:35:35;;;;;;;;;;;;;;;;;;5090039;28;19920;-72
2022/01/08 06:38:01;;;;;;;;;;;;;;;;;;5094148;28;19919;-73
2022/01/08 06:40:26;;;;;;;;;;;;;;;;;;5093193;28;20390;-72
2022/01/08 06:42:52;;;;;;;;;;;;;;;;;;5096674;28;20386;-71
2022/01/08 06:45:18;;;;;;;;;;;;;;;;;;5094996;28;19920;-73
2022/01/08 06:47:45;;;;;;;;;;;;;;;;;;5095154;28;19920;-72
2022/01/08 06:50:11;;;;;;;;;;;;;;;;;;5081346;28;19921;-70
2022/01/08 06:52:37;;;;;;;;;;;;;;;;;;5074384;28;19928;-72
2022/01/08 06:55:03;;;;;;;;;;;;;;;;;;5070971;28;19924;-72
2022/01/08 06:57:29;;;;;;;;;;;;;;;;;;5055903;28;19966;-72
2022/01/08 06:59:55;;;;;;;;;;;;;;;;;;5057014;28;19974;-73
2022/01/08 07:02:21;;;;;;;;;;;;;;;;;;5055319;28;19921;-73
2022/01/08 07:04:47;;;;;;;;;;;;;;;;;;5069351;28;19927;-73
2022/01/08 07:07:13;;;;;;;;;;;;;;;;;;5074280;28;19971;-73
2022/01/08 07:09:39;;;;;;;;;;;;;;;;;;5073602;28;19920;-72
2022/01/08 07:12:05;;;;;;;;;;;;;;;;;;5074292;28;19920;-73
2022/01/08 07:14:31;;;;;;;;;;;;;;;;;;5069248;28;19921;-73
2022/01/08 07:16:57;;;;;;;;;;;;;;;;;;5060572;28;19927;-73
2022/01/08 07:19:23;;;;;;;;;;;;;;;;;;5074026;28;19926;-72
2022/01/08 07:21:49;;;;;;;;;;;;;;;;;;5074663;28;19920;-73
2022/01/08 07:24:15;;;;;;;;;;;;;;;;;;5073976;28;19924;-72
2022/01/08 07:26:41;;;;;;;;;;;;;;;;;;5073486;28;19927;-73
2022/01/08 07:29:07;;;;;;;;;;;;;;;;;;5068464;28;19955;-73
2022/01/08 07:31:33;;;;;;;;;;;;;;;;;;5054223;28;19925;-73
2022/01/08 07:33:59;;;;;;;;;;;;;;;;;;5053463;28;19964;-72
2022/01/08 07:36:25;;;;;;;;;;;;;;;;;;5051493;28;19990;-76
2022/01/08 07:38:51;;;;;;;;;;;;;;;;;;5064818;28;20015;-72
2022/01/08 07:41:17;;;;;;;;;;;;;;;;;;5071917;28;20012;-72
2022/01/08 07:43:43;;;;;;;;;;;;;;;;;;5072136;28;19924;-72
2022/01/08 07:46:09;;;;;;;;;;;;;;;;;;5071615;28;19927;-72
2022/01/08 07:48:35;;;;;;;;;;;;;;;;;;5068709;28;19920;-72
2022/01/08 07:51:01;;;;;;;;;;;;;;;;;;5072076;28;19921;-72
2022/01/08 07:53:27;;;;;;;;;;;;;;;;;;5071667;28;19943;-72
2022/01/08 07:55:53;;;;;;;;;;;;;;;;;;5071898;28;20356;-72
2022/01/08 07:58:20;;;;;;;;;;;;;;;;;;5070157;28;20080;-72
2022/01/08 08:00:46;;;;;;;;;;;;;;;;;;5070796;28;19996;-74
2022/01/08 08:03:12;;;;;;;;;;;;;;;;;;5071208;28;20102;-74
2022/01/08 08:05:38;;;;;;;;;;;;;;;;;;5071800;28;19924;-72
2022/01/08 08:08:04;;;;;;;;;;;;;;;;;;5071694;28;19928;-72
2022/01/08 08:10:31;;;;;;;;;;;;;;;;;;5080299;28;19952;-73
2022/01/08 08:12:57;;;;;;;;;;;;;;;;;;5071626;28;19924;-74
2022/01/08 08:15:23;;;;;;;;;;;;;;;;;;5070896;28;19931;-74
2022/01/08 08:17:49;;;;;;;;;;;;;;;;;;5071383;28;19920;-74
2022/01/08 08:20:14;;;;;;;;;;;;;;;;;;5071010;28;20003;-72
2022/01/08 08:22:40;;;;;;;;;;;;;;;;;;5069392;28;19943;-73
2022/01/08 08:25:06;;;;;;;;;;;;;;;;;;5104259;28;19920;-74
2022/01/08 08:27:32;;;;;;;;;;;;;;;;;;5070665;28;19924;-73
2022/01/08 08:29:58;;;;;;;;;;;;;;;;;;5071048;28;19990;-72
2022/01/08 08:32:24;;;;;;;;;;;;;;;;;;5063133;28;19970;-72
2022/01/08 08:34:53;;;;;;;;;;;;;;;;;;5052131;28;19921;-72
2022/01/08 08:37:19;;;;;;;;;;;;;;;;;;5070519;28;19921;-72
2022/01/08 08:39:45;;;;;;;;;;;;;;;;;;5071164;28;19965;-73
2022/01/08 08:42:11;;;;;;;;;;;;;;;;;;5070656;28;19939;-73
2022/01/08 08:44:37;;;;;;;;;;;;;;;;;;5070137;28;19920;-73
2022/01/08 08:47:04;;;;;;;;;;;;;;;;;;5067986;28;19989;-73
2022/01/08 08:49:30;;;;;;;;;;;;;;;;;;5070072;28;19920;-73
2022/01/08 08:51:56;;;;;;;;;;;;;;;;;;5051993;28;19928;-73
2022/01/08 08:54:22;;;;;;;;;;;;;;;;;;5049805;28;19968;-74
2022/01/08 08:56:48;;;;;;;;;;;;;;;;;;5083833;28;20359;-75
2022/01/08 08:59:14;;;;;;;;;;;;;;;;;;5052095;28;20007;-74
2022/01/08 09:01:40;;;;;;;;;;;;;;;;;;5068341;28;19977;-73
2022/01/08 09:04:06;;;;;;;;;;;;;;;;;;5070635;28;19920;-75
2022/01/08 09:06:32;;;;;;;;;;;;;;;;;;5070344;28;19981;-74
2022/01/08 09:08:58;;;;;;;;;;;;;;;;;;5070586;28;20332;-75
2022/01/08 09:11:24;;;;;;;;;;;;;;;;;;5067952;28;19988;-75
2022/01/08 09:13:50;;;;;;;;;;;;;;;;;;5065854;28;19920;-75
2022/01/08 09:16:16;;;;;;;;;;;;;;;;;;5070646;28;19920;-74
2022/01/08 09:18:42;;;;;;;;;;;;;;;;;;5070658;28;19943;-77
2022/01/08 09:21:08;;;;;;;;;;;;;;;;;;5070556;28;20380;-76
2022/01/08 09:23:34;;;;;;;;;;;;;;;;;;5068576;28;20062;-75
2022/01/08 09:26:00;;;;;;;;;;;;;;;;;;5061671;28;19956;-74
2022/01/08 09:28:27;;;;;;;;;;;;;;;;;;5050847;28;19944;-76
2022/01/08 09:30:53;;;;;;;;;;;;;;;;;;5050490;28;19979;-76
2022/01/08 09:33:20;;;;;;;;;;;;;;;;;;5062269;28;19920;-74
2022/01/08 09:35:46;;;;;;;;;;;;;;;;;;5070521;28;19924;-70
2022/01/08 09:38:12;;;;;;;;;;;;;;;;;;5070390;28;19921;-72
2022/01/08 09:40:38;;;;;;;;;;;;;;;;;;5069987;28;19927;-70
2022/01/08 09:43:04;;;;;;;;;;;;;;;;;;5068558;28;19924;-72
2022/01/08 09:45:30;;;;;;;;;;;;;;;;;;5059036;28;19927;-74
2022/01/08 09:47:56;;;;;;;;;;;;;;;;;;5051675;28;20007;-74
2022/01/08 09:50:22;;;;;;;;;;;;;;;;;;5050366;28;20381;-73
2022/01/08 09:52:48;;;;;;;;;;;;;;;;;;5050877;28;19971;-73
2022/01/08 09:55:14;;;;;;;;;;;;;;;;;;5055269;28;19977;-74
2022/01/08 09:57:40;;;;;;;;;;;;;;;;;;5063413;28;19921;-73
2022/01/08 10:00:06;;;;;;;;;;;;;;;;;;5051445;28;19927;-73
2022/01/08 10:02:31;;;;;;;;;;;;;;;;;;5063173;28;19927;-72
2022/01/08 10:04:57;;;;;;;;;;;;;;;;;;5054283;28;19925;-79
2022/01/08 10:07:23;;;;;;;;;;;;;;;;;;5056454;28;19921;-76
2022/01/08 10:09:52;;;;;;;;;;;;;;;;;;5054023;28;20058;-73
2022/01/08 10:12:18;;;;;;;;;;;;;;;;;;5056930;28;20307;-70
2022/01/08 10:17:13;;;;;;;;;;;;;;;;;;5063044;28;20327;-72
2022/01/08 10:17:30;;;;;;;;;;;;;;;;;;5053599;28;19921;-71
2022/01/08 10:19:56;;;;;;;;;;;;;;;;;;5053948;28;20007;-73
2022/01/08 10:22:22;;;;;;;;;;;;;;;;;;5053850;28;19932;-74
2022/01/08 10:24:48;;;;;;;;;;;;;;;;;;5052976;28;19921;-74
2022/01/08 10:27:14;;;;;;;;;;;;;;;;;;5053501;28;20376;-72
2022/01/08 10:29:40;;;;;;;;;;;;;;;;;;5052176;28;20011;-71
2022/01/08 10:32:07;;;;;;;;;;;;;;;;;;5052537;28;19974;-69
2022/01/08 10:34:33;;;;;;;;;;;;;;;;;;5052821;28;19925;-72
2022/01/08 10:36:59;;;;;;;;;;;;;;;;;;5061903;28;19920;-72
2022/01/08 10:39:25;;;;;;;;;;;;;;;;;;5073424;28;19953;-70
2022/01/08 10:41:51;;;;;;;;;;;;;;;;;;5066645;28;19944;-72
2022/01/08 10:44:17;;;;;;;;;;;;;;;;;;5053562;28;19968;-76
2022/01/08 10:46:43;;;;;;;;;;;;;;;;;;5068319;28;19925;-72
2022/01/08 10:49:09;;;;;;;;;;;;;;;;;;5053262;28;20007;-70
2022/01/08 10:51:35;;;;;;;;;;;;;;;;;;5052991;28;19920;-71
2022/01/08 10:54:01;;;;;;;;;;;;;;;;;;5070481;28;20394;-71
2022/01/08 10:56:27;;;;;;;;;;;;;;;;;;5072584;28;19920;-71
2022/01/08 10:58:55;;;;;;;;;;;;;;;;;;5072687;28;19925;-71
2022/01/08 11:01:21;;;;;;;;;;;;;;;;;;5098934;28;19940;-74
2022/01/08 11:03:47;;;;;;;;;;;;;;;;;;5052667;28;19920;-73
2022/01/08 11:06:13;;;;;;;;;;;;;;;;;;5052854;28;20004;-73
2022/01/08 11:08:39;;;;;;;;;;;;;;;;;;5052235;28;19921;-72
2022/01/08 11:11:07;;;;;;;;;;;;;;;;;;5053490;28;19932;-71
2022/01/08 11:13:35;;;;;;;;;;;;;;;;;;5059744;28;19928;-77
2022/01/08 11:16:01;;;;;;;;;;;;;;;;;;5071962;28;19920;-69
2022/01/08 11:18:27;;;;;;;;;;;;;;;;;;5085561;28;19927;-73
2022/01/08 11:20:53;;;;;;;;;;;;;;;;;;5052118;28;19994;-71
2022/01/08 11:23:19;;;;;;;;;;;;;;;;;;5068109;28;19927;-72
2022/01/08 11:25:45;;;;;;;;;;;;;;;;;;5051357;28;20323;-71
2022/01/08 11:28:11;;;;;;;;;;;;;;;;;;5081421;28;19920;-74
2022/01/08 11:30:38;;;;;;;;;;;;;;;;;;5072017;28;19920;-74
2022/01/08 11:33:09;;;;;;;;;;;;;;;;;;5072463;28;20003;-72
2022/01/08 11:35:36;;;;;;;;;;;;;;;;;;5072126;28;19920;-72
2022/01/08 11:38:04;;;;;;;;;;;;;;;;;;5096416;28;20054;-71
2022/01/08 11:40:33;;;;;;;;;;;;;;;;;;5066181;28;20018;-72
2022/01/08 11:42:59;;;;;;;;;;;;;;;;;;5070806;28;19920;-74
2022/01/08 11:45:25;;;;;;;;;;;;;;;;;;5071174;28;19983;-71
2022/01/08 11:47:51;;;;;;;;;;;;;;;;;;5069726;28;20010;-72
2022/01/08 11:50:18;;;;;;;;;;;;;;;;;;5070337;28;19928;-69
2022/01/08 11:52:44;;;;;;;;;;;;;;;;;;5068793;28;19985;-71
2022/01/08 11:55:10;;;;;;;;;;;;;;;;;;5066934;28;19982;-70
2022/01/08 11:57:35;;;;;;;;;;;;;;;;;;5070257;28;19920;-69
2022/01/08 12:00:02;;;;;;;;;;;;;;;;;;5060882;28;19921;-71
2022/01/08 12:02:28;;;;;;;;;;;;;;;;;;5067390;28;19927;-71
2022/01/08 12:04:54;;;;;;;;;;;;;;;;;;5059059;28;19924;-70
2022/01/08 12:07:21;;;;;;;;;;;;;;;;;;5070575;28;20012;-71
2022/01/08 12:09:47;;;;;;;;;;;;;;;;;;5071380;28;20003;-72
2022/01/08 12:12:13;;;;;;;;;;;;;;;;;;5071741;28;19924;-70
2022/01/08 12:14:39;;;;;;;;;;;;;;;;;;5071640;28;19921;-69
2022/01/08 12:17:05;;;;;;;;;;;;;;;;;;5068770;28;19926;-70
2022/01/08 12:19:37;;;;;;;;;;;;;;;;;;5070196;28;19965;-72
2022/01/08 12:22:03;;;;;;;;;;;;;;;;;;5071122;28;20023;-70
2022/01/08 12:24:29;;;;;;;;;;;;;;;;;;5070947;28;19967;-70
2022/01/08 12:26:55;;;;;;;;;;;;;;;;;;5068161;28;19927;-79
2022/01/08 12:29:20;;;;;;;;;;;;;;;;;;5055059;28;20011;-72
2022/01/08 12:31:50;;;;;;;;;;;;;;;;;;5051739;28;19928;-75
2022/01/08 12:34:16;;;;;;;;;;;;;;;;;;5071146;28;19920;-72
2022/01/08 12:36:47;;;;;;;;;;;;;;;;;;5070041;28;20351;-72
2022/01/08 12:39:13;;;;;;;;;;;;;;;;;;5071363;28;19928;-71
2022/01/08 12:41:39;;;;;;;;;;;;;;;;;;5071243;28;19928;-74
2022/01/08 12:44:05;;;;;;;;;;;;;;;;;;5054049;28;19924;-70
2022/01/08 12:46:30;;;;;;;;;;;;;;;;;;5051120;28;19928;-70
2022/01/08 12:48:56;;;;;;;;;;;;;;;;;;5050607;28;19968;-70
2022/01/08 12:51:24;;;;;;;;;;;;;;;;;;5050978;28;19966;-69
2022/01/08 12:53:50;;;;;;;;;;;;;;;;;;5061111;28;20015;-68
2022/01/08 12:56:16;;;;;;;;;;;;;;;;;;5065108;28;20071;-70
2022/01/08 12:58:43;;;;;;;;;;;;;;;;;;5051048;28;20026;-70
2022/01/08 13:01:09;;;;;;;;;;;;;;;;;;5050626;28;20023;-69
2022/01/08 13:03:35;;;;;;;;;;;;;;;;;;5056021;28;19968;-71
2022/01/08 13:06:01;;;;;;;;;;;;;;;;;;5070236;28;19973;-74
2022/01/08 13:08:27;;;;;;;;;;;;;;;;;;5070754;28;20003;-70
2022/01/08 13:11:00;;;;;;;;;;;;;;;;;;5069409;28;19945;-73
2022/01/08 13:13:26;;;;;;;;;;;;;;;;;;5068848;28;19921;-69
2022/01/08 13:15:52;;;;;;;;;;;;;;;;;;5050585;28;19928;-68
2022/01/08 13:18:18;;;;;;;;;;;;;;;;;;5065915;28;19972;-71
2022/01/08 13:20:44;;;;;;;;;;;;;;;;;;5050568;28;19928;-68
2022/01/08 13:23:10;;;;;;;;;;;;;;;;;;5050036;28;19925;-71
2022/01/08 13:25:36;;;;;;;;;;;;;;;;;;5050756;28;20387;-70
2022/01/08 13:28:02;;;;;;;;;;;;;;;;;;5050316;28;20258;-68
2022/01/08 13:30:28;;;;;;;;;;;;;;;;;;5050745;28;20269;-68
2022/01/08 13:32:54;;;;;;;;;;;;;;;;;;5050148;28;19979;-79
2022/01/08 13:35:19;;;;;;;;;;;;;;;;;;5068825;28;20386;-70
2022/01/08 13:37:45;;;;;;;;;;;;;;;;;;5054686;28;20020;-67
2022/01/08 13:40:11;;;;;;;;;;;;;;;;;;5054214;28;19924;-69
2022/01/08 13:42:37;;;;;;;;;;;;;;;;;;5054164;28;19925;-75
2022/01/08 13:45:03;;;;;;;;;;;;;;;;;;5053872;28;19924;-67
2022/01/08 13:47:29;;;;;;;;;;;;;;;;;;5055216;28;20019;-68
2022/01/08 13:49:55;;;;;;;;;;;;;;;;;;5069162;28;19921;-68
2022/01/08 13:52:36;;;;;;;;;;;;;;;;;;5054348;28;19920;-70
2022/01/08 13:55:02;;;;;;;;;;;;;;;;;;5053514;28;19928;-69
2022/01/08 13:57:28;;;;;;;;;;;;;;;;;;5067919;28;19920;-71
2022/01/08 13:59:54;;;;;;;;;;;;;;;;;;5089899;28;20025;-69
2022/01/08 14:02:20;;;;;;;;;;;;;;;;;;5074486;28;19920;-69
2022/01/08 14:04:46;;;;;;;;;;;;;;;;;;5073378;28;19927;-72
2022/01/08 14:07:12;;;;;;;;;;;;;;;;;;5071448;28;19974;-71
2022/01/08 14:09:39;;;;;;;;;;;;;;;;;;5073884;28;20007;-69
2022/01/08 14:12:05;;;;;;;;;;;;;;;;;;5073250;28;19920;-67
2022/01/08 14:14:33;;;;;;;;;;;;;;;;;;5073594;28;19920;-69
2022/01/08 14:17:01;;;;;;;;;;;;;;;;;;5071721;28;19938;-69
2022/01/08 14:19:26;;;;;;;;;;;;;;;;;;5073828;28;20011;-67
2022/01/08 14:21:52;;;;;;;;;;;;;;;;;;5072706;28;19986;-70
2022/01/08 14:24:18;;;;;;;;;;;;;;;;;;5073311;28;20007;-69
2022/01/08 14:26:44;;;;;;;;;;;;;;;;;;5073479;28;19920;-68
2022/01/08 14:29:10;;;;;;;;;;;;;;;;;;5070736;28;19966;-68
2022/01/08 14:31:36;;;;;;;;;;;;;;;;;;5073508;28;19926;-67
2022/01/08 14:34:02;;;;;;;;;;;;;;;;;;5073028;28;20015;-69
2022/01/08 14:36:28;;;;;;;;;;;;;;;;;;5073382;28;19920;-66
2022/01/08 14:38:54;;;;;;;;;;;;;;;;;;5069802;28;19931;-69
2022/01/08 14:41:20;;;;;;;;;;;;;;;;;;5072640;28;19928;-68
2022/01/08 14:43:46;;;;;;;;;;;;;;;;;;5070862;28;19921;-69
2022/01/08 14:46:12;;;;;;;;;;;;;;;;;;5070905;28;20383;-75
2022/01/08 14:48:38;;;;;;;;;;;;;;;;;;5069995;28;20418;-71
2022/01/08 14:51:04;;;;;;;;;;;;;;;;;;5056361;28;19920;-68
2022/01/08 14:53:31;;;;;;;;;;;;;;;;;;5052700;28;20011;-67
2022/01/08 14:55:57;;;;;;;;;;;;;;;;;;5052484;28;19921;-66
2022/01/08 14:58:23;;;;;;;;;;;;;;;;;;5052112;28;19928;-71
2022/01/08 15:00:48;;;;;;;;;;;;;;;;;;5059583;28;19982;-73
2022/01/08 15:03:14;;;;;;;;;;;;;;;;;;5062082;28;19925;-69
2022/01/08 15:05:40;;;;;;;;;;;;;;;;;;5053363;28;19921;-70
2022/01/08 15:08:06;;;;;;;;;;;;;;;;;;5053185;28;20300;-73
2022/01/08 15:10:32;;;;;;;;;;;;;;;;;;5054621;28;19920;-66
2022/01/08 15:12:58;;;;;;;;;;;;;;;;;;5053361;28;19921;-71
2022/01/08 15:15:25;;;;;;;;;;;;;;;;;;5072005;28;19924;-72
2022/01/08 15:17:53;;;;;;;;;;;;;;;;;;5074188;28;19927;-72
2022/01/08 15:20:19;;;;;;;;;;;;;;;;;;5073639;28;19928;-73
2022/01/08 15:22:45;;;;;;;;;;;;;;;;;;5074144;28;19920;-73
2022/01/08 15:25:11;;;;;;;;;;;;;;;;;;5068661;28;20007;-66
2022/01/08 15:27:37;;;;;;;;;;;;;;;;;;5055987;28;19966;-72
2022/01/08 15:30:03;;;;;;;;;;;;;;;;;;5053196;28;19970;-70
2022/01/08 15:32:31;;;;;;;;;;;;;;;;;;5053809;28;19925;-82
2022/01/08 15:35:01;;;;;;;;;;;;;;;;;;5052860;28;19920;-69
2022/01/08 15:37:27;;;;;;;;;;;;;;;;;;5054856;28;20115;-69
2022/01/08 15:39:52;;;;;;;;;;;;;;;;;;5054085;28;19920;-70
2022/01/08 15:42:18;;;;;;;;;;;;;;;;;;5053893;28;20344;-68
2022/01/08 15:44:45;;;;;;;;;;;;;;;;;;5054159;28;20374;-81
2022/01/08 15:47:11;;;;;;;;;;;;;;;;;;5053744;28;19920;-76
2022/01/08 15:49:37;;;;;;;;;;;;;;;;;;5066822;28;20364;-69
2022/01/08 15:52:03;;;;;;;;;;;;;;;;;;5073873;28;19924;-73
2022/01/08 15:54:29;;;;;;;;;;;;;;;;;;5073323;28;19930;-68
2022/01/08 15:56:55;;;;;;;;;;;;;;;;;;5073956;28;19927;-72
2022/01/08 15:59:21;;;;;;;;;;;;;;;;;;5070750;28;19920;-71
2022/01/08 16:01:47;;;;;;;;;;;;;;;;;;5073696;28;20443;-72
2022/01/08 16:04:13;;;;;;;;;;;;;;;;;;5073347;28;19924;-70
2022/01/08 16:06:39;;;;;;;;;;;;;;;;;;5073785;28;19921;-77
2022/01/08 16:09:05;;;;;;;;;;;;;;;;;;5073469;28;19920;-81
2022/01/08 16:11:31;;;;;;;;;;;;;;;;;;5087318;28;19924;-74
2022/01/08 16:13:57;;;;;;;;;;;;;;;;;;5073498;28;19920;-71
2022/01/08 16:16:23;;;;;;;;;;;;;;;;;;5067504;28;19925;-71
2022/01/08 16:18:49;;;;;;;;;;;;;;;;;;5053755;28;20114;-72
2022/01/08 16:21:15;;;;;;;;;;;;;;;;;;5053146;28;19982;-77
2022/01/08 16:23:43;;;;;;;;;;;;;;;;;;5052466;28;19920;-74
2022/01/08 16:26:09;;;;;;;;;;;;;;;;;;5053105;28;19921;-73
2022/01/08 16:28:35;;;;;;;;;;;;;;;;;;5082100;28;19927;-71
2022/01/08 16:31:00;;;;;;;;;;;;;;;;;;5053471;28;19968;-78
2022/01/08 16:33:26;;;;;;;;;;;;;;;;;;5052715;28;19927;-84
2022/01/08 16:35:52;;;;;;;;;;;;;;;;;;5051932;28;19946;-81
2022/01/08 16:38:18;;;;;;;;;;;;;;;;;;5051809;28;20357;-74
2022/01/08 16:40:44;;;;;;;;;;;;;;;;;;5053582;28;19920;-74
2022/01/08 16:43:10;;;;;;;;;;;;;;;;;;5052148;28;19971;-77
2022/01/08 16:45:36;;;;;;;;;;;;;;;;;;5052689;28;20039;-74
2022/01/08 16:48:02;;;;;;;;;;;;;;;;;;5071731;28;19966;-84
2022/01/08 16:50:28;;;;;;;;;;;;;;;;;;5071601;28;20011;-71
2022/01/08 16:52:54;;;;;;;;;;;;;;;;;;5072984;28;19920;-80
2022/01/08 16:55:20;;;;;;;;;;;;;;;;;;5072592;28;20339;-67